Time;durP1;ratioP1;P1;durP2;ratioP2;P2;SDS_P1;SDS_P2;PMS_P1;PMS_P2;Temp;Humidity;BMP_temperature;BMP_pressure;BME280_temperature;BME280_humidity;BME280_pressure;Samples;Min_cycle;Max_cycle;Signal;HPM_P1;HPM_P2
2023/03/16 00:00:51;;;;;;;33.03;14.20;;;;;;;5.45;54.31;100621.25;4984942;28;101326;-90
2023/03/16 00:03:20;;;;;;;24.77;13.97;;;;;;;5.15;54.24;100576.38;4984934;28;96837;-91
2023/03/16 00:05:51;;;;;;;26.80;14.10;;;;;;;5.29;54.38;100601.41;5018779;28;96695;-92
2023/03/16 00:08:17;;;;;;;23.07;13.20;;;;;;;5.18;54.34;100589.38;4984745;28;101397;-90
2023/03/16 00:10:46;;;;;;;25.70;13.33;;;;;;;5.31;54.54;100618.75;4984776;28;101235;-90
2023/03/16 00:13:22;;;;;;;23.67;13.30;;;;;;;5.43;54.65;100633.41;5018895;28;96649;-90
2023/03/16 00:15:53;;;;;;;31.93;14.13;;;;;;;5.40;54.60;100638.66;4977696;28;96937;-91
2023/03/16 00:18:19;;;;;;;27.50;13.93;;;;;;;5.26;54.36;100627.47;4997883;28;101424;-90
2023/03/16 00:20:49;;;;;;;25.33;13.07;;;;;;;5.17;54.58;100621.47;4981366;28;101209;-90
2023/03/16 00:23:15;;;;;;;29.00;13.57;;;;;;;5.20;54.92;100620.56;4998448;28;96627;-90
2023/03/16 00:25:40;;;;;;;23.80;12.57;;;;;;;5.28;54.82;100639.59;4981956;28;96836;-90
2023/03/16 00:28:06;;;;;;;26.67;13.20;;;;;;;4.98;54.76;100604.25;4981551;28;101532;-90
2023/03/16 00:30:31;;;;;;;23.63;12.77;;;;;;;5.13;55.02;100630.19;4982538;28;101281;-90
2023/03/16 00:32:58;;;;;;;25.97;12.13;;;;;;;5.08;54.92;100621.53;5000917;28;97295;-90
2023/03/16 00:35:24;;;;;;;27.57;12.07;;;;;;;5.22;54.91;100653.53;4984832;28;97371;-90
2023/03/16 00:37:49;;;;;;;20.50;11.30;;;;;;;5.17;54.84;100644.03;4978532;28;102005;-90
2023/03/16 00:40:16;;;;;;;23.37;12.03;;;;;;;5.18;54.55;100648.38;4997700;28;101244;-90
2023/03/16 00:42:42;;;;;;;20.90;11.67;;;;;;;5.22;54.81;100653.53;4981622;28;96718;-89
2023/03/16 00:45:08;;;;;;;20.37;11.37;;;;;;;5.22;54.77;100656.13;4998195;28;97054;-91
2023/03/16 00:47:35;;;;;;;21.40;10.63;;;;;;;4.90;54.70;100609.50;4997545;28;100415;-90
2023/03/16 00:50:53;;;;;;;19.90;10.40;;;;;;;5.14;54.64;100657.06;4998536;28;98482;-89
2023/03/16 00:53:19;;;;;;;18.20;9.57;;;;;;;5.10;54.87;100645.81;5011648;28;96626;-90
2023/03/16 00:55:44;;;;;;;18.00;9.47;;;;;;;5.08;54.80;100655.34;4961685;28;96801;-90
2023/03/16 00:58:13;;;;;;;18.47;9.17;;;;;;;5.06;54.99;100653.63;4971024;28;100308;-90
2023/03/16 01:00:39;;;;;;;20.90;9.50;;;;;;;4.83;55.22;100623.44;4981962;28;100549;-89
2023/03/16 01:03:06;;;;;;;17.77;8.20;;;;;;;5.03;54.97;100656.25;4977409;28;96717;-90
2023/03/16 01:05:32;;;;;;;20.73;8.80;;;;;;;5.06;54.66;100670.13;4962703;28;96848;-90
2023/03/16 01:08:01;;;;;;;14.67;7.83;;;;;;;5.07;55.00;100673.59;4980013;28;101143;-91
2023/03/16 01:10:27;;;;;;;17.50;7.83;;;;;;;4.85;55.07;100652.88;4996768;28;101101;-90
2023/03/16 01:12:54;;;;;;;17.73;8.47;;;;;;;4.84;55.28;100653.75;4996769;28;96884;-90
2023/03/16 01:15:21;;;;;;;17.47;8.47;;;;;;;4.71;55.15;100641.69;4997386;28;96849;-90
2023/03/16 01:17:46;;;;;;;16.53;7.77;;;;;;;4.74;55.24;100647.75;4980041;28;101307;-90
2023/03/16 01:20:49;;;;;;;21.83;8.40;;;;;;;4.85;55.47;100683.25;4980291;28;101515;-91
2023/03/16 01:23:21;;;;;;;14.30;7.20;;;;;;;4.69;55.35;100662.50;4998187;28;96746;-90
2023/03/16 01:25:51;;;;;;;16.65;7.78;;;;;;;4.60;55.72;100653.91;5006054;28;96771;-90
2023/03/16 01:28:54;;;;;;;16.47;7.43;;;;;;;4.80;55.97;100685.00;4980834;28;98432;-90
2023/03/16 01:31:21;;;;;;;14.13;7.20;;;;;;;4.60;55.72;100667.75;4979753;28;101603;-90
2023/03/16 01:33:47;;;;;;;13.33;6.90;;;;;;;4.72;55.84;100693.72;4996346;28;96805;-90
2023/03/16 01:36:18;;;;;;;15.25;7.53;;;;;;;4.69;55.84;100698.06;5012746;28;97395;-90
2023/03/16 01:39:16;;;;;;;18.20;9.00;;;;;;;4.60;55.90;100692.91;4996136;28;98280;-90
2023/03/16 01:41:46;;;;;;;16.20;8.23;;;;;;;4.66;56.30;100705.88;4980222;28;100164;-90
2023/03/16 01:44:13;;;;;;;19.00;8.50;;;;;;;4.51;56.54;100686.00;4980164;28;97115;-90
2023/03/16 01:46:40;;;;;;;17.27;8.23;;;;;;;4.60;56.36;100711.97;4982816;28;96886;-90
2023/03/16 01:49:12;;;;;;;16.20;7.97;;;;;;;4.55;56.77;100705.91;4975038;28;100643;-90
2023/03/16 01:51:50;;;;;;;21.13;8.65;;;;;;;4.50;56.79;100712.84;4980399;28;101465;-90
2023/03/16 01:54:23;;;;;;;16.33;8.03;;;;;;;4.51;56.87;100712.84;4993406;28;96639;-90
2023/03/16 01:56:55;;;;;;;;;;;;;;;4.48;56.92;100715.47;4987310;28;96673;-91
2023/03/16 01:59:26;;;;;;;15.13;8.00;;;;;;;4.38;57.01;100692.09;5013032;28;98013;-91
2023/03/16 02:01:51;;;;;;;19.00;8.07;;;;;;;4.49;56.72;100717.19;4982441;28;101876;-91
2023/03/16 02:04:53;;;;;;;15.47;7.93;;;;;;;4.40;56.98;100699.03;4978235;28;96745;-91
2023/03/16 02:07:23;;;;;;;18.13;7.60;;;;;;;4.39;57.03;100712.88;4999701;28;96661;-91
2023/03/16 02:09:53;;;;;;;20.93;8.53;;;;;;;4.13;57.02;100663.56;5013604;28;101758;-90
2023/03/16 02:12:20;;;;;;;16.93;7.37;;;;;;;4.44;57.14;100718.06;4979432;28;100424;-90
2023/03/16 02:14:50;;;;;;;20.87;8.57;;;;;;;4.29;57.10;100700.78;5012284;28;96715;-91
2023/03/16 02:17:20;;;;;;;18.83;7.90;;;;;;;4.24;57.26;100699.91;5013348;28;96863;-91
2023/03/16 02:20:03;;;;;;;18.00;7.83;;;;;;;4.40;57.25;100727.63;4986217;28;100824;-90
2023/03/16 02:22:34;;;;;;;16.73;8.13;;;;;;;4.37;57.40;100721.56;4994306;28;100512;-91
2023/03/16 02:25:01;;;;;;;17.52;7.97;;;;;;;4.36;57.32;100718.06;4984088;28;96759;-93
2023/03/16 02:27:45;;;;;;;16.43;7.80;;;;;;;4.37;57.45;100730.22;4965375;28;96881;-91
2023/03/16 02:30:15;;;;;;;17.40;7.87;;;;;;;4.37;57.40;100724.16;4966330;28;101648;-90
2023/03/16 02:32:55;;;;;;;16.80;7.77;;;;;;;4.38;57.50;100718.94;4969637;28;101649;-91
2023/03/16 02:35:21;;;;;;;19.27;8.23;;;;;;;4.28;57.11;100712.06;4982759;28;96752;-91
2023/03/16 02:37:48;;;;;;;21.50;8.67;;;;;;;4.25;56.79;100719.84;4999028;28;96883;-91
2023/03/16 02:40:21;;;;;;;18.63;8.30;;;;;;;4.31;57.43;100731.09;5012929;28;101450;-93
2023/03/16 02:43:12;;;;;;;19.33;8.90;;;;;;;4.28;57.59;100725.03;4998290;28;101587;-91
2023/03/16 02:45:46;;;;;;;26.70;9.93;;;;;;;4.30;57.29;100736.28;4983681;28;96907;-91
2023/03/16 02:48:17;;;;;;;25.27;9.17;;;;;;;4.18;57.48;100711.19;4966114;28;97051;-91
2023/03/16 02:50:45;;;;;;;22.58;9.35;;;;;;;4.10;57.48;100702.53;4998164;28;100268;-92
2023/03/16 02:53:13;;;;;;;21.47;9.03;;;;;;;4.26;57.27;100740.63;4982124;28;99913;-90
2023/03/16 02:55:38;;;;;;;21.30;9.50;;;;;;;4.24;57.46;100741.50;4981829;28;96714;-90
2023/03/16 02:58:04;;;;;;;25.07;9.50;;;;;;;3.91;57.41;100685.25;4998485;28;96782;-90
2023/03/16 03:00:31;;;;;;;19.80;8.53;;;;;;;4.11;57.49;100732.84;4993478;28;100360;-92
2023/03/16 03:02:57;;;;;;;22.03;7.93;;;;;;;4.28;57.57;100745.84;5018825;28;101118;-92
2023/03/16 03:05:23;;;;;;;21.03;7.87;;;;;;;4.17;57.33;100732.84;4991662;28;96895;-90
2023/03/16 03:07:48;;;;;;;16.57;7.37;;;;;;;4.03;57.59;100714.66;5019188;28;96788;-90
2023/03/16 03:10:14;;;;;;;21.30;7.97;;;;;;;4.18;57.82;100752.75;5018502;28;100094;-90
2023/03/16 03:12:40;;;;;;;16.07;7.17;;;;;;;4.13;57.63;100746.72;5001916;28;99999;-90
2023/03/16 03:15:08;;;;;;;16.57;7.70;;;;;;;3.57;57.89;100652.38;4999236;28;96738;-91
2023/03/16 03:17:43;;;;;;;20.23;6.80;;;;;;;4.18;57.62;100749.31;4988301;28;96852;-90
2023/03/16 03:20:17;;;;;;;18.13;7.17;;;;;;;4.00;57.55;100719.88;5018753;28;101424;-90
2023/03/16 03:22:44;;;;;;;18.30;8.03;;;;;;;4.22;57.51;100758.84;5020001;28;100162;-90
2023/03/16 03:25:11;;;;;;;21.20;7.17;;;;;;;4.05;57.66;100740.66;5018729;28;96767;-91
2023/03/16 03:27:36;;;;;;;17.33;7.37;;;;;;;4.18;57.39;100754.50;5035341;28;96806;-92
2023/03/16 03:30:06;;;;;;;20.33;9.67;;;;;;;3.99;57.51;100730.28;5016330;28;99341;-92
2023/03/16 03:32:31;;;;;;;21.93;9.20;;;;;;;4.18;57.39;100768.34;4992047;28;100033;-91
2023/03/16 03:34:57;;;;;;;20.23;9.07;;;;;;;3.73;57.56;100697.38;4998353;28;96606;-91
2023/03/16 03:37:24;;;;;;;21.47;9.00;;;;;;;4.09;57.81;100769.22;5022059;28;96842;-91
2023/03/16 03:39:49;;;;;;;20.30;7.80;;;;;;;3.66;57.49;100698.22;5017864;28;100390;-90
2023/03/16 03:42:16;;;;;;;13.67;6.87;;;;;;;3.98;57.77;100747.56;4985239;28;100912;-90
2023/03/16 03:44:41;;;;;;;16.00;7.43;;;;;;;3.78;57.63;100728.53;5001673;28;96691;-90
2023/03/16 03:47:09;;;;;;;15.03;7.23;;;;;;;3.85;57.72;100733.72;5000613;28;97021;-90
2023/03/16 03:49:35;;;;;;;15.63;6.37;;;;;;;4.04;58.08;100776.19;5016818;28;101051;-91
2023/03/16 03:52:03;;;;;;;12.83;5.90;;;;;;;3.79;57.72;100725.09;4983338;28;101246;-91
2023/03/16 03:54:30;;;;;;;11.10;5.77;;;;;;;3.89;57.78;100749.31;5008015;27;96906;-91
2023/03/16 03:56:57;;;;;;;16.20;6.70;;;;;;;3.97;58.02;100766.63;5037234;27;96760;-90
2023/03/16 03:59:22;;;;;;;14.90;6.30;;;;;;;3.83;58.11;100751.03;5005690;27;101141;-92
2023/03/16 04:02:04;;;;;;;11.63;6.00;;;;;;;3.92;58.08;100777.88;5041294;27;97848;-94
2023/03/16 04:04:41;;;;;;;13.77;6.30;;;;;;;3.77;58.16;100758.84;4986636;28;96882;-91
2023/03/16 04:07:09;;;;;;;14.00;5.87;;;;;;;3.85;58.08;100775.28;5007438;28;97361;-91
2023/03/16 04:09:35;;;;;;;14.80;5.80;;;;;;;3.84;58.29;100781.34;5017117;28;100980;-91
2023/03/16 04:12:02;;;;;;;14.70;5.73;;;;;;;3.73;58.12;100751.91;5017320;28;100316;-91
2023/03/16 04:14:28;;;;;;;11.70;5.87;;;;;;;3.86;58.24;100776.16;5014455;28;96860;-91
2023/03/16 04:16:55;;;;;;;12.60;6.10;;;;;;;3.89;58.41;100780.47;5000924;28;96789;-91
2023/03/16 04:19:21;;;;;;;14.53;5.07;;;;;;;3.79;58.16;100770.09;4999197;28;101447;-91
2023/03/16 04:21:48;;;;;;;9.33;5.10;;;;;;;3.96;58.00;100785.69;5000853;28;100265;-91
2023/03/16 04:24:14;;;;;;;11.27;5.20;;;;;;;3.79;58.44;100772.69;5010875;27;96728;-91
2023/03/16 04:26:40;;;;;;;7.87;4.40;;;;;;;3.81;57.92;100767.47;5016940;27;96820;-91
2023/03/16 04:29:07;;;;;;;13.43;4.97;;;;;;;3.96;57.77;100797.81;5016801;28;100827;-92
2023/03/16 04:31:33;;;;;;;10.03;4.50;;;;;;;3.93;57.97;100792.63;5008952;28;101272;-92
2023/03/16 04:34:01;;;;;;;11.13;4.67;;;;;;;3.86;57.78;100790.00;5000763;28;96783;-92
2023/03/16 04:36:27;;;;;;;11.03;5.13;;;;;;;3.83;58.22;100795.19;5030475;27;96945;-92
2023/03/16 04:38:54;;;;;;;11.30;5.17;;;;;;;3.52;57.68;100733.69;5014153;28;101080;-89
2023/03/16 04:41:21;;;;;;;10.03;5.03;;;;;;;3.35;58.05;100711.19;4995884;28;99987;-91
2023/03/16 04:43:56;;;;;;;12.37;5.27;;;;;;;3.74;58.18;100778.75;5013394;28;96859;-92
2023/03/16 04:46:25;;;;;;;12.17;5.43;;;;;;;3.68;58.25;100779.59;5015107;28;96968;-92
2023/03/16 04:48:52;;;;;;;13.60;5.97;;;;;;;3.57;57.84;100761.41;4995227;28;100254;-91
2023/03/16 04:51:20;;;;;;;10.67;5.17;;;;;;;3.69;58.05;100780.47;5024796;27;101190;-92
2023/03/16 04:53:56;;;;;;;11.00;5.40;;;;;;;3.78;58.07;100809.03;5020108;28;97027;-93
2023/03/16 04:56:29;;;;;;;12.07;4.90;;;;;;;3.58;58.10;100773.53;5010306;27;97281;-92
2023/03/16 04:58:59;;;;;;;10.90;5.47;;;;;;;3.71;58.32;100800.38;5027668;27;100829;-92
2023/03/16 05:01:29;;;;;;;8.40;4.80;;;;;;;3.78;58.28;100814.22;5026890;28;100811;-92
2023/03/16 05:03:57;;;;;;;10.37;4.97;;;;;;;3.80;58.14;100825.50;4984427;28;96746;-91
2023/03/16 05:06:23;;;;;;;10.23;5.10;;;;;;;3.75;58.39;100816.81;4978615;28;97211;-91
2023/03/16 05:08:49;;;;;;;11.23;5.60;;;;;;;3.67;57.94;100798.66;4998465;27;100234;-91
2023/03/16 05:11:14;;;;;;;9.30;4.83;;;;;;;3.42;58.27;100766.56;5002656;28;101281;-91
2023/03/16 05:13:50;;;;;;;12.17;5.07;;;;;;;3.60;58.05;100792.56;5025524;27;96845;-91
2023/03/16 05:16:16;;;;;;;11.10;5.10;;;;;;;3.43;58.26;100768.28;5002171;27;96936;-91
2023/03/16 05:18:42;;;;;;;11.87;5.53;;;;;;;3.39;58.23;100751.00;4995466;28;101329;-91
2023/03/16 05:21:08;;;;;;;12.13;5.33;;;;;;;3.73;58.62;100818.56;5010383;28;101788;-91
2023/03/16 05:23:59;;;;;;;13.00;5.28;;;;;;;3.82;58.17;100821.19;5005644;28;96856;-91
2023/03/16 05:26:25;;;;;;;11.40;5.07;;;;;;;3.36;58.32;100746.66;5013206;28;97256;-91
2023/03/16 05:28:51;;;;;;;13.67;5.50;;;;;;;3.73;57.89;100801.25;5014211;28;101150;-91
2023/03/16 05:31:21;;;;;;;11.27;5.17;;;;;;;3.33;58.37;100740.59;5007795;28;98701;-92
2023/03/16 05:33:51;;;;;;;13.13;5.00;;;;;;;3.76;58.43;100826.38;4998453;28;96788;-92
2023/03/16 05:36:19;;;;;;;16.27;5.43;;;;;;;3.70;58.41;100802.97;4996693;28;97149;-92
2023/03/16 05:38:48;;;;;;;11.70;4.87;;;;;;;3.90;58.59;100828.97;5013178;28;101509;-92
2023/03/16 05:41:27;;;;;;;10.37;5.20;;;;;;;3.83;58.49;100825.50;5000854;28;101249;-94
2023/03/16 05:44:03;;;;;;;13.30;5.73;;;;;;;3.85;58.22;100829.84;5007860;27;96970;-91
2023/03/16 05:46:39;;;;;;;12.07;5.13;;;;;;;3.52;58.62;100772.63;5005848;28;96963;-92
2023/03/16 05:49:06;;;;;;;10.20;5.57;;;;;;;3.83;58.52;100828.09;5012603;28;100304;-92
2023/03/16 05:51:31;;;;;;;13.17;5.23;;;;;;;3.92;58.63;100838.50;4997252;28;100945;-92
2023/03/16 05:53:59;;;;;;;12.70;5.63;;;;;;;3.72;58.24;100802.09;5026712;27;96822;-93
2023/03/16 05:56:33;;;;;;;12.57;5.20;;;;;;;3.99;58.86;100853.25;5000924;28;96840;-93
2023/03/16 05:58:59;;;;;;;14.13;6.13;;;;;;;4.06;58.86;100841.97;4985157;28;100242;-91
2023/03/16 06:01:26;;;;;;;15.97;6.50;;;;;;;3.98;58.63;100820.31;5028953;28;100541;-93
2023/03/16 06:03:51;;;;;;;15.83;7.20;;;;;;;4.20;58.55;100847.19;5014672;28;96782;-92
2023/03/16 06:06:22;;;;;;;18.77;7.17;;;;;;;4.32;58.54;100854.97;5023247;27;96752;-91
2023/03/16 06:09:00;;;;;;;15.13;6.60;;;;;;;4.36;58.36;100849.78;5013307;28;101515;-91
2023/03/16 06:11:26;;;;;;;15.73;6.33;;;;;;;4.50;58.72;100859.31;5006580;27;100118;-90
2023/03/16 06:13:52;;;;;;;19.77;6.03;;;;;;;4.47;58.19;100827.25;4993740;28;96765;-91
2023/03/16 06:16:18;;;;;;;12.03;5.57;;;;;;;4.37;58.01;100805.59;5000652;28;96931;-90
2023/03/16 06:18:44;;;;;;;16.00;5.70;;;;;;;4.85;57.92;100866.19;5016196;28;101283;-91
2023/03/16 06:21:10;;;;;;;12.77;4.93;;;;;;;5.02;57.67;100873.09;4989181;28;101388;-90
2023/03/16 06:23:38;;;;;;;13.37;4.80;;;;;;;4.73;57.94;100793.41;5003062;28;96650;-90
2023/03/16 06:26:05;;;;;;;10.47;4.10;;;;;;;5.40;57.29;100883.41;5002863;28;96760;-90
2023/03/16 06:28:33;;;;;;;12.77;4.80;;;;;;;4.98;56.71;100791.59;5033223;28;100765;-90
2023/03/16 06:31:54;;;;;;;10.80;4.87;;;;;;;5.78;56.53;100880.59;5019642;28;101280;-90
2023/03/16 06:34:21;;;;;;;9.00;4.10;;;;;;;6.00;55.94;100880.53;5020207;28;96918;-90
2023/03/16 06:36:52;;;;;;;14.03;4.63;;;;;;;6.13;55.99;100884.78;5019744;28;97008;-90
2023/03/16 06:39:18;;;;;;;11.93;4.17;;;;;;;6.20;55.87;100864.75;5019087;28;101516;-90
2023/03/16 06:41:46;;;;;;;14.87;4.27;;;;;;;6.47;55.17;100874.97;5036443;28;100161;-90
2023/03/16 06:44:41;;;;;;;7.30;3.57;;;;;;;6.70;54.72;100873.91;4987804;28;96820;-90
2023/03/16 06:47:10;;;;;;;9.87;4.27;;;;;;;6.91;54.43;100872.81;5021306;28;97079;-90
2023/03/16 06:49:36;;;;;;;9.80;3.60;;;;;;;7.12;54.00;100879.56;5003316;28;101403;-90
2023/03/16 06:52:12;;;;;;;10.20;3.67;;;;;;;7.30;53.49;100889.81;5003109;28;99120;-90
2023/03/16 06:55:28;;;;;;;9.60;3.90;;;;;;;7.56;53.16;100884.25;5003256;28;96672;-90
2023/03/16 06:57:54;;;;;;;7.83;3.43;;;;;;;7.83;52.88;100885.66;5036791;28;96767;-89
2023/03/16 07:00:26;;;;;;;8.13;3.60;;;;;;;8.02;51.87;100886.22;5002177;28;101845;-90
2023/03/16 07:02:52;;;;;;;11.80;5.10;;;;;;;8.05;51.61;100886.19;5002306;27;101780;-89
2023/03/16 07:05:45;;;;;;;12.40;4.25;;;;;;;8.25;51.33;100883.28;5002005;28;96616;-90
2023/03/16 07:08:12;;;;;;;11.80;3.58;;;;;;;8.24;50.85;100867.63;5018908;28;96760;-90
2023/03/16 07:10:55;;;;;;;8.45;3.83;;;;;;;8.56;51.04;100885.44;5018136;28;100670;-90
2023/03/16 07:13:21;;;;;;;8.93;3.28;;;;;;;8.84;50.97;100889.31;5001366;28;101730;-88
2023/03/16 07:15:51;;;;;;;8.60;3.25;;;;;;;8.92;50.04;100869.97;5000733;28;96693;-88
2023/03/16 07:18:18;;;;;;;5.18;2.45;;;;;;;9.30;49.85;100893.66;5000720;28;96920;-88
2023/03/16 07:20:44;;;;;;;8.00;3.28;;;;;;;9.37;49.05;100873.47;5010969;27;100317;-89
2023/03/16 07:23:10;;;;;;;8.65;3.40;;;;;;;9.56;48.49;100887.03;5021124;28;100566;-88
2023/03/16 07:25:36;;;;;;;7.82;2.67;;;;;;;9.86;47.98;100898.66;5017644;28;96740;-88
2023/03/16 07:28:11;;;;;;;14.43;3.63;;;;;;;10.06;47.48;100902.56;5002265;28;97258;-89
2023/03/16 07:30:40;;;;;;;8.75;3.08;;;;;;;10.29;47.21;100902.06;5002003;28;100218;-90
2023/03/16 07:33:08;;;;;;;8.80;3.05;;;;;;;10.25;47.04;100892.53;5015697;27;100322;-91
2023/03/16 07:35:34;;;;;;;9.23;3.03;;;;;;;10.27;46.74;100870.66;5014325;28;97174;-89
2023/03/16 07:38:00;;;;;;;10.32;3.92;;;;;;;10.50;46.88;100883.22;5020503;27;96943;-89
2023/03/16 07:40:27;;;;;;;10.05;3.30;;;;;;;10.62;45.61;100877.63;5018553;28;101371;-89
2023/03/16 07:42:57;;;;;;;5.68;3.05;;;;;;;10.86;45.89;100891.03;5002336;28;100468;-89
2023/03/16 07:45:32;;;;;;;11.18;3.47;;;;;;;10.96;45.49;100881.13;5003322;28;96823;-90
2023/03/16 07:47:58;;;;;;;11.25;4.45;;;;;;;11.19;45.33;100893.66;5018215;28;96905;-89
2023/03/16 07:50:40;;;;;;;12.05;3.38;;;;;;;11.17;45.11;100883.19;5019966;28;102146;-89
2023/03/16 07:56:35;;;;;;;10.65;3.38;;;;;;;11.93;44.59;100905.59;5006118;28;96706;-89
2023/03/16 07:59:02;;;;;;;7.18;3.78;;;;;;;12.05;43.83;100912.25;5019171;28;96951;-90
2023/03/16 08:01:30;;;;;;;9.13;3.63;;;;;;;12.21;43.89;100909.06;5018468;28;100425;-89
2023/03/16 08:03:56;;;;;;;9.10;3.28;;;;;;;12.38;42.95;100913.81;5018083;28;101467;-89
2023/03/16 08:06:24;;;;;;;11.75;3.95;;;;;;;12.58;42.76;100918.44;5018046;28;96726;-89
2023/03/16 08:12:55;;;;;;;10.95;3.65;;;;;;;13.03;40.89;100917.81;5033350;28;96936;-88
2023/03/16 08:15:34;;;;;;;11.00;3.80;;;;;;;13.30;40.65;100912.50;5001126;28;100251;-89
2023/03/16 08:25:56;;;;;;;10.35;3.10;;;;;;;13.87;39.33;100919.16;4971656;28;97008;-89
2023/03/16 08:28:24;;;;;;;15.97;3.50;;;;;;;13.96;39.31;100923.22;4958058;28;100300;-89
2023/03/16 08:30:52;;;;;;;8.68;2.92;;;;;;;14.04;39.17;100908.81;4942032;28;96750;-89
2023/03/16 08:33:47;;;;;;;10.00;3.20;;;;;;;14.46;38.52;100923.88;4946329;28;96623;-89
2023/03/16 08:36:17;;;;;;;7.45;3.08;;;;;;;14.73;38.29;100926.34;4941389;28;101488;-89
2023/03/16 08:38:46;;;;;;;6.95;2.65;;;;;;;14.96;37.66;100925.38;4941761;28;100642;-89
2023/03/16 08:41:54;;;;;;;9.38;3.33;;;;;;;15.00;36.98;100937.50;4941495;28;96756;-89
2023/03/16 08:44:49;;;;;;;6.45;2.40;;;;;;;15.30;36.55;100929.19;4945771;28;96847;-89
2023/03/16 08:47:52;;;;;;;7.95;2.70;;;;;;;15.72;35.33;100936.16;4941549;28;100079;-89
2023/03/16 08:50:30;;;;;;;7.80;2.85;;;;;;;15.87;35.31;100918.72;4993369;28;100629;-89
2023/03/16 08:52:56;;;;;;;11.30;2.97;;;;;;;16.09;35.55;100935.31;4989837;28;96886;-87
2023/03/16 08:55:21;;;;;;;6.55;2.80;;;;;;;16.37;34.91;100939.28;5014675;28;96958;-87
2023/03/16 08:57:47;;;;;;;10.07;3.10;;;;;;;16.70;34.58;100921.75;4980652;28;101301;-86
2023/03/16 09:00:13;;;;;;;11.27;3.45;;;;;;;17.04;33.87;100930.66;4979845;28;101105;-89
2023/03/16 09:02:47;;;;;;;6.10;2.78;;;;;;;17.10;33.23;100909.13;4980475;28;96795;-87
2023/03/16 09:05:14;;;;;;;8.32;2.35;;;;;;;17.33;32.95;100877.88;4997872;28;97031;-86
2023/03/16 09:07:52;;;;;;;9.13;2.55;;;;;;;17.77;32.27;100906.47;4985622;28;101528;-87
2023/03/16 09:10:21;;;;;;;12.13;3.00;;;;;;;18.10;31.72;100923.22;4963979;28;101169;-86
2023/03/16 09:12:48;;;;;;;14.82;3.25;;;;;;;17.42;32.58;100928.69;4997197;28;96815;-87
2023/03/16 09:15:14;;;;;;;9.68;2.90;;;;;;;17.73;32.39;100912.91;4997398;28;96795;-87
2023/03/16 09:17:41;;;;;;;8.10;2.15;;;;;;;17.92;31.01;100894.16;4980414;28;97230;-88
2023/03/16 09:20:09;;;;;;;11.68;2.65;;;;;;;18.40;30.23;100924.25;4997221;28;101351;-87
2023/03/16 09:22:36;;;;;;;8.40;2.60;;;;;;;18.54;30.04;100911.03;4980767;28;96654;-87
2023/03/16 09:25:05;;;;;;;7.22;2.90;;;;;;;18.47;30.08;100918.50;4981522;28;96887;-86
2023/03/16 09:27:37;;;;;;;9.38;2.25;;;;;;;18.61;29.58;100903.53;4969343;28;101460;-87
2023/03/16 09:30:04;;;;;;;6.45;2.30;;;;;;;18.48;29.41;100888.31;4998274;28;100212;-88
2023/03/16 09:32:30;;;;;;;7.63;2.28;;;;;;;18.16;30.03;100899.94;4964824;28;97183;-88
2023/03/16 09:34:56;;;;;;;6.85;2.22;;;;;;;17.87;29.18;100895.28;4981198;28;96817;-88
2023/03/16 09:37:22;;;;;;;7.45;2.30;;;;;;;17.73;29.91;100900.47;4980815;28;101072;-87
2023/03/16 09:39:48;;;;;;;7.47;2.20;;;;;;;18.20;29.56;100917.41;5014096;28;101894;-88
2023/03/16 09:42:26;;;;;;;8.43;2.65;;;;;;;18.51;29.46;100921.84;4980440;28;97576;-87
2023/03/16 09:45:06;;;;;;;10.63;3.13;;;;;;;18.64;28.30;100895.38;4997691;28;96740;-87
2023/03/16 09:47:34;;;;;;;6.25;2.75;;;;;;;18.40;29.00;100921.59;4996433;28;101128;-88
2023/03/16 09:50:04;;;;;;;9.02;2.97;;;;;;;18.77;28.98;100931.00;4996889;28;98602;-89
2023/03/16 09:52:43;;;;;;;6.65;2.47;;;;;;;18.94;28.47;100927.34;4985964;27;96982;-90
2023/03/16 09:55:47;;;;;;;11.02;3.13;;;;;;;19.15;28.03;100928.69;5006886;28;96721;-88
2023/03/16 09:58:18;;;;;;;6.32;2.15;;;;;;;19.26;27.08;100927.19;4996036;28;101391;-87
2023/03/16 10:00:58;;;;;;;5.40;2.45;;;;;;;19.15;26.54;100920.72;5009896;28;101397;-87
2023/03/16 10:03:33;;;;;;;8.45;2.42;;;;;;;19.40;27.09;100930.75;5024465;27;96882;-89
2023/03/16 10:06:01;;;;;;;6.95;2.17;;;;;;;19.39;26.58;100925.50;5005834;28;96823;-89
2023/03/16 10:08:42;;;;;;;4.70;1.63;;;;;;;19.03;26.25;100928.59;5003090;28;98496;-88
2023/03/16 10:11:17;;;;;;;6.95;1.88;;;;;;;19.16;26.57;100909.13;5001633;27;101751;-87
2023/03/16 10:13:49;;;;;;;6.35;2.45;;;;;;;19.16;26.08;100926.91;5004192;28;97327;-90
2023/03/16 10:16:24;;;;;;;7.75;2.33;;;;;;;19.19;26.35;100940.88;5044722;27;96893;-88
2023/03/16 10:19:00;;;;;;;7.97;2.58;;;;;;;18.99;26.66;100934.09;5003598;28;97284;-86
2023/03/16 10:21:26;;;;;;;4.85;2.03;;;;;;;19.12;26.51;100920.06;5014334;28;100205;-87
2023/03/16 10:23:54;;;;;;;10.95;2.50;;;;;;;19.20;26.68;100920.47;5003701;28;97409;-88
2023/03/16 10:26:25;;;;;;;5.35;2.10;;;;;;;18.07;27.29;100925.22;4998546;28;96897;-87
2023/03/16 10:28:51;;;;;;;6.13;2.00;;;;;;;17.70;28.02;100908.59;5019744;28;98501;-88
2023/03/16 10:31:20;;;;;;;13.10;2.88;;;;;;;17.54;28.10;100932.47;5016098;28;98555;-89
2023/03/16 10:33:46;;;;;;;4.10;2.53;;;;;;;17.47;28.11;100936.38;5016094;28;96834;-89
2023/03/16 10:36:33;;;;;;;7.10;2.55;;;;;;;16.45;29.29;100910.63;5028589;27;96890;-91
2023/03/16 10:39:07;;;;;;;7.28;2.30;;;;;;;16.87;29.06;100917.41;5004567;28;101823;-90
2023/03/16 10:41:39;;;;;;;8.18;2.60;;;;;;;16.72;29.16;100926.94;5020517;28;101141;-88
2023/03/16 10:44:25;;;;;;;5.97;1.92;;;;;;;16.35;28.51;100935.84;5012248;28;97115;-86
2023/03/16 10:47:03;;;;;;;7.28;2.20;;;;;;;16.44;29.37;100917.72;5005935;28;96837;-87
2023/03/16 10:49:40;;;;;;;5.47;2.13;;;;;;;16.46;29.15;100931.78;5020824;28;100680;-90
2023/03/16 10:52:39;;;;;;;12.63;2.53;;;;;;;16.36;29.13;100921.69;5015948;28;101424;-89
2023/03/16 10:55:31;;;;;;;6.68;2.10;;;;;;;16.07;28.88;100924.78;5012392;28;96939;-89
2023/03/16 10:57:57;;;;;;;6.35;2.15;;;;;;;15.38;29.26;100919.13;4999320;28;97182;-90
2023/03/16 11:00:27;;;;;;;9.80;2.40;;;;;;;15.27;29.99;100932.84;5014817;28;98514;-91
2023/03/16 11:02:55;;;;;;;3.88;2.00;;;;;;;15.00;30.70;100934.88;4984245;27;101193;-87
2023/03/16 11:05:28;;;;;;;6.90;2.22;;;;;;;14.85;31.08;100933.75;5009861;28;96889;-89
2023/03/16 11:08:09;;;;;;;12.18;2.10;;;;;;;14.88;30.32;100932.75;5015751;28;97178;-88
2023/03/16 11:10:37;;;;;;;4.80;2.00;;;;;;;14.66;30.35;100925.75;5005050;28;102067;-87
2023/03/16 11:13:16;;;;;;;8.98;2.60;;;;;;;14.56;30.87;100932.31;5028463;28;100600;-88
2023/03/16 11:15:47;;;;;;;4.60;1.92;;;;;;;14.53;30.97;100924.50;5015791;28;96823;-89
2023/03/16 11:18:37;;;;;;;7.68;2.15;;;;;;;14.44;31.35;100917.78;5005535;28;96869;-88
2023/03/16 11:21:37;;;;;;;7.15;2.00;;;;;;;14.29;31.54;100920.19;4998745;28;100079;-88
2023/03/16 11:24:04;;;;;;;7.15;2.60;;;;;;;14.18;31.38;100912.69;5021382;28;100808;-88
2023/03/16 11:26:33;;;;;;;8.05;2.13;;;;;;;13.99;31.34;100904.63;4998369;28;96909;-90
2023/03/16 11:29:08;;;;;;;7.40;2.38;;;;;;;13.84;31.43;100911.34;5015501;28;97204;-90
2023/03/16 11:31:44;;;;;;;4.28;1.83;;;;;;;13.85;30.80;100915.72;5011319;27;100970;-88
2023/03/16 11:34:36;;;;;;;5.82;2.33;;;;;;;13.66;30.93;100919.97;5010248;28;101634;-89
2023/03/16 11:37:20;;;;;;;14.98;2.67;;;;;;;13.55;30.81;100925.63;4996492;27;96921;-88
2023/03/16 11:40:15;;;;;;;6.95;2.03;;;;;;;13.40;31.98;100913.03;5035600;27;96939;-88
2023/03/16 11:43:26;;;;;;;7.97;1.92;;;;;;;13.15;31.80;100916.50;4989461;28;98924;-88
2023/03/16 11:46:26;;;;;;;9.05;2.63;;;;;;;13.29;32.26;100922.19;4970476;28;97545;-88
2023/03/16 11:49:10;;;;;;;8.77;2.47;;;;;;;13.23;32.21;100911.81;4967942;28;96940;-90
2023/03/16 11:51:48;;;;;;;8.13;2.20;;;;;;;13.14;31.43;100899.81;4955789;28;96929;-90
2023/03/16 11:54:31;;;;;;;6.10;1.90;;;;;;;13.10;31.68;100905.25;4967351;28;101990;-90
2023/03/16 11:57:02;;;;;;;5.00;2.15;;;;;;;12.90;32.39;100892.78;4980246;28;100347;-88
2023/03/16 11:59:52;;;;;;;8.33;2.27;;;;;;;12.99;32.75;100907.41;4957846;28;97237;-88